createdAt,value
2017-11-30T00:02:23.197Z,44.34
2017-11-30T00:04:51.511Z,37.36
2017-11-30T00:07:19.776Z,33.32
2017-11-30T00:09:48.060Z,31.16
2017-11-30T00:12:16.381Z,37.34
2017-11-30T00:14:44.640Z,45.04
2017-11-30T00:17:12.960Z,40.34
2017-11-30T00:19:41.225Z,47.60
2017-11-30T00:22:09.536Z,40.98
2017-11-30T00:24:37.824Z,38.10
2017-11-30T00:27:06.129Z,42.12
2017-11-30T00:29:34.403Z,44.74
2017-11-30T00:32:03.644Z,44.72
2017-11-30T00:34:31.943Z,44.00
2017-11-30T00:37:00.219Z,37.70
2017-11-30T00:39:28.522Z,37.28
2017-11-30T00:41:56.794Z,35.54
2017-11-30T00:44:34.105Z,39.02
2017-11-30T00:47:02.423Z,32.12
2017-11-30T00:49:30.707Z,35.22
2017-11-30T00:51:59.000Z,31.98
2017-11-30T00:54:27.270Z,40.14
2017-11-30T00:56:56.418Z,34.76
2017-11-30T00:59:25.104Z,37.82
2017-11-30T01:01:54.377Z,34.52
2017-11-30T01:04:22.642Z,36.86
2017-11-30T01:06:50.913Z,39.72
2017-11-30T01:09:18.443Z,34.60
2017-11-30T01:11:46.784Z,39.94
2017-11-30T01:14:15.070Z,41.14
2017-11-30T01:16:43.391Z,35.84
2017-11-30T01:19:11.672Z,41.10
2017-11-30T01:21:39.981Z,36.62
2017-11-30T01:24:08.296Z,33.92
2017-11-30T01:26:36.552Z,36.10
2017-11-30T01:29:04.859Z,37.24
2017-11-30T01:31:34.150Z,36.84
2017-11-30T01:34:01.689Z,39.32
2017-11-30T01:36:29.996Z,35.00
2017-11-30T01:38:58.250Z,34.62
2017-11-30T01:41:26.562Z,33.68
2017-11-30T01:43:55.548Z,36.86
2017-11-30T01:46:24.911Z,33.52
2017-11-30T01:48:53.177Z,33.18
2017-11-30T01:51:21.432Z,33.48
2017-11-30T01:53:49.725Z,35.04
2017-11-30T01:56:17.981Z,39.90
2017-11-30T01:58:46.288Z,34.86
2017-11-30T02:01:14.605Z,34.32
2017-11-30T02:03:42.887Z,40.92
2017-11-30T02:06:11.214Z,44.14
2017-11-30T02:08:39.485Z,33.92
2017-11-30T02:11:07.763Z,38.12
2017-11-30T02:13:36.057Z,36.16
2017-11-30T02:16:04.316Z,37.44
2017-11-30T02:18:32.629Z,40.66
2017-11-30T02:21:00.915Z,39.78
2017-11-30T02:23:29.188Z,40.52
2017-11-30T02:25:57.496Z,36.80
2017-11-30T02:28:26.031Z,37.30
2017-11-30T02:30:56.117Z,44.32
2017-11-30T02:33:25.551Z,38.06
2017-11-30T02:35:55.518Z,36.42
2017-11-30T02:38:25.854Z,44.08
2017-11-30T02:40:58.032Z,37.44
2017-11-30T02:43:26.282Z,36.40
2017-11-30T02:45:54.911Z,43.14
2017-11-30T02:48:24.921Z,39.74
2017-11-30T02:50:54.971Z,42.90
2017-11-30T02:53:25.087Z,42.14
2017-11-30T02:55:54.877Z,37.50
2017-11-30T02:58:24.619Z,43.94
2017-11-30T03:00:55.163Z,39.06
2017-11-30T03:03:24.230Z,44.90
2017-11-30T03:05:53.147Z,42.12
2017-11-30T03:08:21.399Z,45.38
2017-11-30T03:10:49.680Z,43.58
2017-11-30T03:13:17.938Z,48.32
2017-11-30T03:16:01.305Z,51.90
2017-11-30T03:18:33.512Z,50.44
2017-11-30T03:21:01.796Z,43.78
2017-11-30T03:23:30.129Z,50.76
2017-11-30T03:25:58.428Z,49.96
2017-11-30T03:28:26.780Z,46.62
2017-11-30T03:30:55.852Z,44.78
2017-11-30T03:33:25.184Z,41.02
2017-11-30T03:35:54.185Z,44.54
2017-11-30T03:38:23.311Z,41.64
2017-11-30T03:40:51.601Z,43.14
2017-11-30T03:43:19.861Z,42.56
2017-11-30T03:45:48.153Z,45.44
2017-11-30T03:48:16.447Z,50.12
2017-11-30T03:50:44.766Z,57.26
2017-11-30T03:53:13.020Z,56.74
2017-11-30T03:55:41.284Z,52.34
2017-11-30T03:58:09.581Z,52.64
2017-11-30T04:00:37.981Z,59.90
2017-11-30T04:03:06.276Z,47.98
2017-11-30T04:05:34.531Z,54.84
2017-11-30T04:08:02.835Z,50.72
2017-11-30T04:10:31.101Z,63.20
2017-11-30T04:12:59.404Z,58.96
2017-11-30T04:15:27.659Z,51.24
2017-11-30T04:17:56.146Z,58.98
2017-11-30T04:20:25.886Z,62.50
2017-11-30T04:22:55.977Z,57.48
2017-11-30T04:25:26.200Z,58.26
2017-11-30T04:27:56.231Z,58.66
2017-11-30T04:30:25.958Z,51.46
2017-11-30T04:32:56.181Z,57.78
2017-11-30T04:35:24.685Z,54.24
2017-11-30T04:37:54.710Z,51.50
2017-11-30T04:40:24.900Z,62.40
2017-11-30T04:42:54.959Z,60.38
2017-11-30T04:45:24.370Z,65.40
2017-11-30T04:47:52.667Z,66.88
2017-11-30T04:50:20.924Z,52.68
2017-11-30T04:52:49.184Z,61.48
2017-11-30T04:55:17.467Z,59.18
2017-11-30T04:57:45.743Z,59.20
2017-11-30T05:00:14.031Z,62.64
2017-11-30T05:02:44.360Z,63.48
2017-11-30T05:05:12.650Z,60.36
2017-11-30T05:07:40.907Z,58.64
2017-11-30T05:10:09.201Z,56.52
2017-11-30T05:12:37.497Z,58.36
2017-11-30T05:15:05.751Z,57.24
2017-11-30T05:17:34.044Z,46.64
2017-11-30T05:20:02.348Z,55.52
2017-11-30T05:22:30.638Z,51.76
2017-11-30T05:24:58.899Z,47.90
2017-11-30T05:27:26.408Z,60.34
2017-11-30T05:29:54.983Z,55.46
2017-11-30T05:32:24.511Z,58.18
2017-11-30T05:34:54.314Z,57.88
2017-11-30T05:37:23.335Z,44.92
2017-11-30T05:39:51.631Z,55.76
2017-11-30T05:42:19.920Z,53.48
2017-11-30T05:44:48.168Z,49.12
2017-11-30T05:47:16.461Z,56.70
2017-11-30T05:49:44.716Z,51.34
2017-11-30T05:52:13.007Z,51.70
2017-11-30T05:54:41.309Z,63.34
2017-11-30T05:57:08.792Z,51.18
2017-11-30T05:59:37.088Z,47.16
2017-11-30T06:02:05.357Z,55.52
2017-11-30T06:04:33.630Z,52.62
2017-11-30T06:07:03.944Z,44.12
2017-11-30T06:09:32.239Z,44.40
2017-11-30T06:12:00.500Z,50.46
2017-11-30T06:14:28.753Z,45.60
2017-11-30T06:16:57.050Z,49.72
2017-11-30T06:19:25.777Z,50.48
2017-11-30T06:21:55.771Z,46.70
2017-11-30T06:24:38.172Z,36.60
2017-11-30T06:27:06.418Z,40.04
2017-11-30T06:29:34.752Z,43.62
2017-11-30T06:32:03.016Z,46.42
2017-11-30T06:34:31.284Z,47.80
2017-11-30T06:36:59.576Z,39.38
2017-11-30T06:39:27.831Z,47.06
2017-11-30T06:41:56.151Z,42.92
2017-11-30T06:44:26.220Z,34.18
2017-11-30T06:46:55.631Z,45.42
2017-11-30T06:49:24.800Z,36.60
2017-11-30T06:52:01.324Z,41.02
2017-11-30T06:54:29.651Z,42.74
2017-11-30T06:56:57.912Z,37.24
2017-11-30T06:59:32.268Z,32.58
2017-11-30T07:02:00.516Z,36.82
2017-11-30T07:04:28.809Z,33.66
2017-11-30T07:06:57.109Z,44.80
2017-11-30T07:09:26.122Z,36.00
2017-11-30T07:11:56.005Z,36.96
2017-11-30T07:14:25.838Z,32.20
2017-11-30T07:16:56.003Z,42.12
2017-11-30T07:19:25.966Z,37.74
2017-11-30T07:21:57.596Z,33.04
2017-11-30T07:24:25.788Z,44.00
2017-11-30T07:26:55.138Z,46.04
2017-11-30T07:29:25.183Z,34.76
2017-11-30T07:31:53.444Z,35.28
2017-11-30T07:34:21.744Z,34.74
2017-11-30T07:36:50.012Z,34.46
2017-11-30T07:39:18.398Z,66.32
2017-11-30T07:41:46.661Z,91.40
2017-11-30T07:44:14.919Z,34.32
2017-11-30T07:46:43.206Z,43.74
2017-11-30T07:49:11.471Z,37.78
2017-11-30T07:51:39.763Z,33.18
2017-11-30T07:54:08.017Z,35.96
2017-11-30T07:56:36.332Z,47.18
2017-11-30T07:59:04.584Z,36.68
2017-11-30T08:01:32.843Z,36.56
2017-11-30T08:04:01.131Z,35.46
2017-11-30T08:06:29.383Z,38.78
2017-11-30T08:08:57.663Z,36.52
2017-11-30T08:11:26.272Z,35.54
2017-11-30T08:13:55.925Z,32.46
2017-11-30T08:16:25.204Z,31.62
2017-11-30T08:18:53.492Z,42.28
2017-11-30T08:21:23.293Z,35.88
2017-11-30T08:23:51.577Z,34.68
2017-11-30T08:26:19.865Z,42.08
2017-11-30T08:28:48.204Z,45.18
2017-11-30T08:31:16.491Z,32.12
2017-11-30T08:33:44.747Z,38.96
2017-11-30T08:36:13.033Z,42.08
2017-11-30T08:38:41.290Z,41.48
2017-11-30T08:41:09.576Z,42.88
2017-11-30T08:43:37.836Z,38.78
2017-11-30T08:46:26.687Z,33.74
2017-11-30T08:48:55.692Z,37.00
2017-11-30T08:51:24.841Z,36.18
2017-11-30T08:53:54.600Z,34.62
2017-11-30T08:56:24.199Z,33.22
2017-11-30T08:58:53.188Z,36.54
2017-11-30T09:01:23.135Z,34.36
2017-11-30T09:03:51.387Z,34.90
2017-11-30T09:06:19.682Z,32.48
2017-11-30T09:08:47.941Z,31.72
2017-11-30T09:11:26.492Z,35.10
2017-11-30T09:13:55.159Z,43.88
2017-11-30T09:16:24.306Z,32.22
2017-11-30T09:18:52.619Z,30.68
2017-11-30T09:21:20.875Z,30.42
2017-11-30T09:23:49.168Z,30.46
2017-11-30T09:26:16.683Z,29.88
2017-11-30T09:28:44.932Z,28.26
2017-11-30T09:31:13.215Z,25.28
2017-11-30T09:33:41.475Z,19.68
2017-11-30T09:36:09.767Z,28.44
2017-11-30T09:38:38.021Z,19.98
2017-11-30T09:41:06.267Z,22.28
2017-11-30T09:43:34.557Z,26.10
2017-11-30T09:46:02.844Z,22.34
2017-11-30T09:48:31.109Z,19.98
2017-11-30T09:50:59.398Z,22.96
2017-11-30T09:53:27.657Z,23.38
2017-11-30T09:55:56.291Z,18.78
2017-11-30T09:58:26.043Z,23.56
2017-11-30T10:00:55.961Z,18.94
2017-11-30T10:03:25.249Z,24.24
2017-11-30T10:05:53.543Z,33.18
2017-11-30T10:08:23.328Z,23.22
2017-11-30T10:10:51.620Z,27.16
2017-11-30T10:13:19.856Z,23.32
2017-11-30T10:15:48.134Z,25.64
2017-11-30T10:18:16.387Z,20.50
2017-11-30T10:20:44.679Z,21.00
2017-11-30T10:23:12.933Z,21.36
2017-11-30T10:25:41.189Z,19.74
2017-11-30T10:28:09.492Z,18.88
2017-11-30T10:30:37.758Z,19.88
2017-11-30T10:33:06.061Z,16.26
2017-11-30T10:35:34.316Z,21.56
2017-11-30T10:38:01.836Z,19.24
2017-11-30T10:40:31.104Z,18.52
2017-11-30T10:42:59.398Z,20.36
2017-11-30T10:45:27.651Z,17.20
2017-11-30T10:47:56.336Z,17.08
2017-11-30T10:50:25.141Z,19.78
2017-11-30T10:52:55.909Z,18.20
2017-11-30T10:55:25.957Z,21.02
2017-11-30T10:57:55.924Z,19.48
2017-11-30T11:00:23.411Z,13.84
2017-11-30T11:02:51.687Z,16.00
2017-11-30T11:05:19.977Z,17.38
2017-11-30T11:07:49.235Z,13.90
2017-11-30T11:10:17.527Z,16.92
2017-11-30T11:12:45.780Z,16.12
2017-11-30T11:15:14.042Z,16.34
2017-11-30T11:17:42.332Z,14.32
2017-11-30T11:20:10.637Z,14.66
2017-11-30T11:22:38.891Z,17.10
2017-11-30T11:25:07.152Z,14.60
2017-11-30T11:27:35.457Z,18.00
2017-11-30T11:30:03.716Z,16.60
2017-11-30T11:32:31.982Z,17.36
2017-11-30T11:35:00.280Z,15.34
2017-11-30T11:37:28.580Z,18.08
2017-11-30T11:39:56.851Z,14.08
2017-11-30T11:42:25.883Z,21.14
2017-11-30T11:44:56.009Z,14.92
2017-11-30T11:47:25.969Z,24.06
2017-11-30T11:49:56.079Z,21.20
2017-11-30T11:52:26.227Z,14.92
2017-11-30T11:54:55.780Z,21.26
2017-11-30T11:57:25.992Z,16.92
2017-11-30T11:59:56.040Z,12.76
2017-11-30T12:02:26.161Z,17.64
2017-11-30T12:04:55.823Z,17.82
2017-11-30T12:07:25.767Z,17.68
2017-11-30T12:09:55.735Z,14.96
2017-11-30T12:12:25.301Z,18.70
2017-11-30T12:14:53.556Z,13.98
2017-11-30T12:17:21.810Z,15.16
2017-11-30T12:19:50.095Z,12.82
2017-11-30T12:22:18.342Z,11.88
2017-11-30T12:24:46.637Z,19.16
2017-11-30T12:27:14.895Z,14.92
2017-11-30T12:29:43.189Z,14.48
2017-11-30T12:32:11.443Z,13.48
2017-11-30T12:34:39.723Z,16.88
2017-11-30T12:37:08.013Z,11.74
2017-11-30T12:39:36.267Z,13.70
2017-11-30T12:42:04.567Z,14.18
2017-11-30T12:44:32.807Z,13.68
2017-11-30T12:47:01.068Z,17.70
2017-11-30T12:49:29.355Z,15.14
2017-11-30T12:51:57.608Z,15.82
2017-11-30T12:54:25.874Z,17.08
2017-11-30T12:56:55.776Z,18.34
2017-11-30T12:59:25.803Z,13.52
2017-11-30T13:01:55.861Z,17.86
2017-11-30T13:04:26.095Z,15.00
2017-11-30T13:06:56.150Z,16.92
2017-11-30T13:09:25.906Z,14.96
2017-11-30T13:11:55.161Z,14.78
2017-11-30T13:14:25.506Z,16.92
2017-11-30T13:16:55.370Z,16.48
2017-11-30T13:19:24.382Z,15.56
2017-11-30T13:21:52.657Z,17.40
2017-11-30T13:24:20.906Z,14.30
2017-11-30T13:26:49.197Z,13.84
2017-11-30T13:29:17.478Z,16.62
2017-11-30T13:31:45.730Z,20.00
2017-11-30T13:34:14.020Z,18.10
2017-11-30T13:36:42.261Z,15.50
2017-11-30T13:39:10.542Z,17.38
2017-11-30T13:41:38.791Z,14.98
2017-11-30T13:44:07.078Z,16.00
2017-11-30T13:46:35.368Z,20.76
2017-11-30T13:49:03.625Z,19.44
2017-11-30T13:51:31.914Z,19.38
2017-11-30T13:53:59.426Z,17.88
2017-11-30T13:56:27.710Z,20.38
2017-11-30T13:58:56.369Z,17.06
2017-11-30T14:01:25.186Z,17.78
2017-11-30T14:03:54.869Z,17.54
2017-11-30T14:06:25.441Z,18.90
2017-11-30T14:08:54.667Z,18.94
2017-11-30T14:11:24.359Z,25.94
2017-11-30T14:13:52.653Z,17.68
2017-11-30T14:16:20.912Z,19.72
2017-11-30T14:18:49.203Z,22.64
2017-11-30T14:21:17.495Z,18.02
2017-11-30T14:23:45.749Z,17.74
2017-11-30T14:26:14.033Z,17.82
2017-11-30T14:28:42.290Z,20.36
2017-11-30T14:31:10.575Z,22.54
2017-11-30T14:33:38.866Z,21.20
2017-11-30T14:36:07.165Z,20.98
2017-11-30T14:38:35.418Z,21.70
2017-11-30T14:41:03.666Z,27.18
2017-11-30T14:43:31.962Z,29.10
2017-11-30T14:46:00.259Z,28.24
2017-11-30T14:48:28.531Z,27.62
2017-11-30T14:50:56.813Z,29.36
2017-11-30T14:53:26.285Z,29.02
2017-11-30T14:55:55.497Z,23.60
2017-11-30T14:58:25.039Z,29.56
2017-11-30T15:00:55.306Z,29.06
2017-11-30T15:03:23.590Z,29.20
2017-11-30T15:05:51.855Z,29.54
2017-11-30T15:08:20.111Z,27.96
2017-11-30T15:10:48.405Z,26.64
2017-11-30T15:13:16.658Z,33.84
2017-11-30T15:15:44.955Z,28.24
2017-11-30T15:18:13.212Z,31.66
2017-11-30T15:20:41.503Z,33.64
2017-11-30T15:23:09.759Z,37.00
2017-11-30T15:25:38.054Z,40.36
2017-11-30T15:28:06.379Z,28.78
2017-11-30T15:30:34.607Z,37.48
2017-11-30T15:33:02.905Z,33.86
2017-11-30T15:35:34.294Z,36.04
2017-11-30T15:38:02.585Z,30.48
2017-11-30T15:40:30.877Z,33.32
2017-11-30T15:42:59.136Z,29.28
2017-11-30T15:45:27.428Z,29.30
2017-11-30T15:47:56.950Z,40.46
2017-11-30T15:50:26.335Z,31.50
2017-11-30T15:52:55.643Z,29.90
2017-11-30T15:55:26.920Z,34.54
2017-11-30T15:57:56.129Z,33.08
2017-11-30T16:00:30.387Z,35.14
2017-11-30T16:02:58.672Z,36.00
2017-11-30T16:05:26.951Z,32.46
2017-11-30T16:07:56.302Z,33.18
2017-11-30T16:10:25.878Z,33.12
2017-11-30T16:12:55.193Z,34.20
2017-11-30T16:15:27.826Z,27.82
2017-11-30T16:17:56.398Z,33.87
2017-11-30T16:20:25.566Z,37.56
2017-11-30T16:22:55.015Z,27.08
2017-11-30T16:25:23.167Z,25.14
2017-11-30T16:27:51.458Z,25.38
2017-11-30T16:30:19.709Z,21.46
2017-11-30T16:32:47.962Z,21.06
2017-11-30T16:35:16.242Z,20.30
2017-11-30T16:37:45.402Z,22.64
2017-11-30T16:40:13.688Z,16.98
2017-11-30T16:42:45.489Z,17.02
2017-11-30T16:45:13.791Z,27.50
2017-11-30T16:47:55.754Z,28.08
2017-11-30T16:50:25.390Z,19.42
2017-11-30T16:52:54.392Z,16.20
2017-11-30T16:55:22.672Z,19.54
2017-11-30T16:57:50.927Z,20.66
2017-11-30T17:00:19.214Z,17.72
2017-11-30T17:02:47.462Z,17.86
2017-11-30T17:05:15.747Z,18.92
2017-11-30T17:07:44.000Z,20.64
2017-11-30T17:10:12.279Z,19.28
2017-11-30T17:12:40.525Z,21.28
2017-11-30T17:15:08.810Z,18.96
2017-11-30T17:17:37.061Z,19.58
2017-11-30T17:20:05.347Z,16.64
2017-11-30T17:22:33.605Z,21.24
2017-11-30T17:25:01.884Z,20.36
2017-11-30T17:27:30.138Z,27.92
2017-11-30T17:29:58.381Z,27.46
2017-11-30T17:32:26.661Z,25.06
2017-11-30T17:34:55.364Z,28.10
2017-11-30T17:37:24.457Z,32.14
2017-11-30T17:39:53.061Z,27.70
2017-11-30T17:42:21.321Z,33.24
2017-11-30T17:44:49.600Z,29.02
2017-11-30T17:47:17.086Z,34.86
2017-11-30T17:49:45.367Z,30.84
2017-11-30T17:52:13.658Z,25.10
2017-11-30T17:54:41.951Z,27.94
2017-11-30T17:57:15.025Z,28.60
2017-11-30T17:59:43.318Z,33.06
2017-11-30T18:02:11.574Z,29.68
2017-11-30T18:04:39.826Z,30.64
2017-11-30T18:07:08.110Z,31.60
2017-11-30T18:09:36.362Z,28.86
2017-11-30T18:12:04.647Z,30.92
2017-11-30T18:14:32.133Z,30.68
2017-11-30T18:17:00.413Z,31.28
2017-11-30T18:19:28.657Z,27.42
2017-11-30T18:21:56.929Z,28.64
2017-11-30T18:24:25.895Z,31.78
2017-11-30T18:26:55.338Z,29.44
2017-11-30T18:29:24.384Z,34.76
2017-11-30T18:31:52.961Z,31.12
2017-11-30T18:34:21.237Z,29.28
2017-11-30T18:36:48.726Z,33.32
2017-11-30T18:39:17.026Z,38.88
2017-11-30T18:41:45.274Z,33.22
2017-11-30T18:44:13.534Z,35.06
2017-11-30T18:46:41.827Z,33.80
2017-11-30T18:49:27.238Z,35.22
2017-11-30T18:51:56.066Z,38.38
2017-11-30T18:54:25.367Z,38.76
2017-11-30T18:56:54.883Z,30.98
2017-11-30T18:59:25.064Z,33.80
2017-11-30T19:01:54.481Z,31.50
2017-11-30T19:04:23.446Z,29.58
2017-11-30T19:06:51.725Z,33.00
2017-11-30T19:09:20.006Z,34.38
2017-11-30T19:11:48.259Z,29.96
2017-11-30T19:14:16.542Z,35.00
2017-11-30T19:16:44.789Z,31.74
2017-11-30T19:19:13.070Z,29.44
2017-11-30T19:21:41.327Z,31.26
2017-11-30T19:24:09.608Z,27.22
2017-11-30T19:26:37.899Z,30.32
2017-11-30T19:29:06.182Z,31.44
2017-11-30T19:31:34.422Z,33.80
2017-11-30T19:34:02.714Z,37.26
2017-11-30T19:36:30.204Z,28.16
2017-11-30T19:38:58.506Z,29.18
2017-11-30T19:41:26.757Z,35.08
2017-11-30T19:43:55.011Z,35.94
2017-11-30T19:46:24.913Z,32.60
2017-11-30T19:48:54.453Z,32.92
2017-11-30T19:51:24.492Z,35.78
2017-11-30T19:53:54.489Z,32.62
2017-11-30T19:56:23.733Z,32.16
2017-11-30T19:58:53.623Z,35.98
2017-11-30T20:01:21.875Z,37.14
2017-11-30T20:03:50.157Z,34.50
2017-11-30T20:06:18.412Z,30.06
2017-11-30T20:08:46.702Z,34.40
2017-11-30T20:11:14.963Z,33.36
2017-11-30T20:13:43.206Z,42.64
2017-11-30T20:16:11.499Z,32.50
2017-11-30T20:18:39.753Z,40.78
2017-11-30T20:21:08.042Z,33.32
2017-11-30T20:23:36.285Z,34.94
2017-11-30T20:26:03.808Z,39.46
2017-11-30T20:28:31.322Z,37.20
2017-11-30T20:31:07.899Z,41.48
2017-11-30T20:33:36.182Z,33.52
2017-11-30T20:36:04.437Z,31.26
2017-11-30T20:38:32.726Z,36.50
2017-11-30T20:41:01.014Z,38.04
2017-11-30T20:43:29.266Z,37.66
2017-11-30T20:45:57.518Z,36.62
2017-11-30T20:48:25.438Z,34.80
2017-11-30T20:50:55.451Z,37.04
2017-11-30T20:53:25.361Z,32.24
2017-11-30T20:55:53.648Z,36.34
2017-11-30T20:58:21.907Z,33.60
2017-11-30T21:00:51.093Z,34.94
2017-11-30T21:03:19.369Z,37.62
2017-11-30T21:05:47.649Z,36.52
2017-11-30T21:08:15.941Z,33.04
2017-11-30T21:10:44.197Z,38.46
2017-11-30T21:13:12.454Z,43.08
2017-11-30T21:15:40.742Z,38.70
2017-11-30T21:18:09.017Z,43.72
2017-11-30T21:20:37.319Z,39.24
2017-11-30T21:23:05.571Z,41.80
2017-11-30T21:25:33.823Z,33.44
2017-11-30T21:28:02.122Z,37.64
2017-11-30T21:30:30.381Z,40.26
2017-11-30T21:32:58.630Z,42.70
2017-11-30T21:35:26.918Z,41.56
2017-11-30T21:37:55.889Z,48.24
2017-11-30T21:40:25.686Z,45.18
2017-11-30T21:42:55.362Z,37.52
2017-11-30T21:45:23.641Z,50.12
2017-11-30T21:47:51.937Z,40.52
2017-11-30T21:50:20.191Z,43.74
2017-11-30T21:52:48.470Z,42.66
2017-11-30T21:55:15.962Z,47.90
2017-11-30T21:57:44.246Z,47.66
2017-11-30T22:00:12.500Z,45.48
2017-11-30T22:02:41.697Z,39.88
2017-11-30T22:05:09.941Z,40.42
2017-11-30T22:07:38.215Z,44.42
2017-11-30T22:10:06.505Z,42.82
2017-11-30T22:12:34.762Z,46.82
2017-11-30T22:15:03.009Z,44.56
2017-11-30T22:17:31.295Z,44.88
2017-11-30T22:19:59.549Z,46.64
2017-11-30T22:22:27.834Z,39.86
2017-11-30T22:24:56.482Z,43.40
2017-11-30T22:27:25.655Z,43.70
2017-11-30T22:29:55.370Z,42.18
2017-11-30T22:32:25.358Z,39.76
2017-11-30T22:34:55.315Z,44.70
2017-11-30T22:37:23.599Z,41.00
2017-11-30T22:39:51.085Z,45.72
2017-11-30T22:42:19.367Z,41.84
2017-11-30T22:44:47.635Z,43.34
2017-11-30T22:47:15.952Z,41.58
2017-11-30T22:49:44.206Z,40.64
2017-11-30T22:52:12.468Z,41.08
2017-11-30T22:54:40.751Z,40.24
2017-11-30T22:57:09.026Z,37.06
2017-11-30T22:59:37.275Z,41.58
2017-11-30T23:02:05.560Z,40.48
2017-11-30T23:04:33.822Z,43.92
2017-11-30T23:07:02.094Z,40.84
2017-11-30T23:09:30.406Z,38.34
2017-11-30T23:11:58.672Z,43.34
2017-11-30T23:14:26.930Z,35.16
2017-11-30T23:16:56.490Z,42.92
2017-11-30T23:19:25.378Z,45.48
2017-11-30T23:21:55.279Z,36.96
2017-11-30T23:24:23.561Z,38.38
2017-11-30T23:26:51.850Z,36.46
2017-11-30T23:29:20.107Z,42.32
2017-11-30T23:31:48.399Z,35.26
2017-11-30T23:34:16.666Z,39.52
2017-11-30T23:36:44.922Z,43.54
2017-11-30T23:39:13.174Z,44.54
2017-11-30T23:41:41.472Z,33.46
2017-11-30T23:44:08.963Z,43.26
2017-11-30T23:46:37.222Z,39.32
2017-11-30T23:49:05.514Z,41.34
2017-11-30T23:51:33.799Z,38.12
2017-11-30T23:54:02.086Z,37.38
2017-11-30T23:56:29.617Z,34.42
2017-11-30T23:58:57.871Z,37.26
